createdAt,value
2022-07-29T00:01:02.484Z,6.83
2022-07-29T00:03:29.631Z,6.63
2022-07-29T00:05:56.772Z,5.77
2022-07-29T00:08:23.731Z,2.43
2022-07-29T00:10:51.132Z,5.57
2022-07-29T00:13:18.210Z,4.87
2022-07-29T00:15:59.038Z,5.77
2022-07-29T00:18:32.314Z,5.63
2022-07-29T00:20:59.354Z,7.90
2022-07-29T00:23:26.348Z,7.40
2022-07-29T00:25:53.315Z,28.27
2022-07-29T00:28:20.317Z,5.20
2022-07-29T00:30:47.253Z,7.07
2022-07-29T00:33:14.335Z,7.50
2022-07-29T00:35:47.417Z,8.77
2022-07-29T00:38:16.435Z,8.83
2022-07-29T00:40:47.691Z,9.17
2022-07-29T00:43:15.949Z,5.90
2022-07-29T00:45:43.241Z,3.63
2022-07-29T00:48:10.734Z,5.67
2022-07-29T00:50:38.687Z,7.93
2022-07-29T00:53:07.841Z,5.03
2022-07-29T00:55:35.152Z,15.60
2022-07-29T00:58:03.651Z,9.67
2022-07-29T01:00:31.093Z,7.13
2022-07-29T01:02:58.755Z,7.17
2022-07-29T01:05:50.117Z,11.90
2022-07-29T01:08:16.983Z,4.40
2022-07-29T01:10:45.100Z,4.10
2022-07-29T01:13:12.984Z,8.33
2022-07-29T01:15:49.157Z,10.30
2022-07-29T01:18:31.418Z,6.37
2022-07-29T01:21:16.722Z,9.37
2022-07-29T01:23:46.874Z,12.03
2022-07-29T01:26:29.317Z,6.60
2022-07-29T01:29:23.598Z,5.00
2022-07-29T01:32:01.242Z,9.43
2022-07-29T01:34:47.289Z,6.80
2022-07-29T01:37:48.568Z,4.90
2022-07-29T01:40:41.700Z,9.30
2022-07-29T01:43:15.581Z,5.47
2022-07-29T01:45:46.349Z,3.63
2022-07-29T01:48:19.105Z,5.20
2022-07-29T01:51:02.802Z,6.10
2022-07-29T01:53:38.918Z,7.07
2022-07-29T01:56:09.985Z,8.93
2022-07-29T01:58:41.094Z,6.40
2022-07-29T02:01:10.480Z,3.13
2022-07-29T02:03:39.791Z,10.00
2022-07-29T02:06:08.239Z,6.70
2022-07-29T02:08:37.465Z,6.70
2022-07-29T02:11:06.151Z,6.43
2022-07-29T02:13:36.597Z,6.00
2022-07-29T02:16:07.120Z,9.00
2022-07-29T02:18:36.465Z,7.67
2022-07-29T02:21:04.726Z,8.43
2022-07-29T02:23:51.151Z,10.13
2022-07-29T02:26:21.695Z,10.13
2022-07-29T02:28:50.428Z,14.13
2022-07-29T02:31:21.465Z,5.87
2022-07-29T02:33:49.610Z,9.50
2022-07-29T02:36:17.638Z,13.03
2022-07-29T02:38:54.536Z,9.63
2022-07-29T02:41:25.324Z,10.77
2022-07-29T02:43:57.063Z,9.53
2022-07-29T02:46:36.775Z,9.60
2022-07-29T02:49:16.652Z,5.93
2022-07-29T02:51:52.126Z,8.20
2022-07-29T02:54:38.104Z,11.13
2022-07-29T02:57:31.168Z,11.03
2022-07-29T03:00:04.198Z,12.80
2022-07-29T03:02:37.572Z,9.60
2022-07-29T03:05:07.538Z,24.93
2022-07-29T03:07:38.082Z,9.97
2022-07-29T03:10:07.264Z,12.60
2022-07-29T03:12:41.945Z,16.77
2022-07-29T03:15:10.429Z,17.83
2022-07-29T03:17:38.821Z,12.80
2022-07-29T03:20:07.640Z,10.90
2022-07-29T03:22:39.573Z,11.50
2022-07-29T03:25:14.165Z,13.83
2022-07-29T03:27:41.658Z,11.40
2022-07-29T03:30:10.121Z,11.00
2022-07-29T03:32:37.479Z,10.17
2022-07-29T03:35:05.897Z,11.63
2022-07-29T03:37:34.441Z,12.10
2022-07-29T03:40:04.251Z,11.10
2022-07-29T03:42:34.525Z,11.90
2022-07-29T03:45:06.501Z,12.60
2022-07-29T03:47:47.960Z,11.77
2022-07-29T03:50:20.450Z,18.17
2022-07-29T03:52:48.495Z,14.67
2022-07-29T03:55:16.954Z,10.30
2022-07-29T03:57:46.007Z,13.47
2022-07-29T04:00:13.717Z,14.67
2022-07-29T04:02:41.119Z,9.73
2022-07-29T04:05:13.938Z,14.80
2022-07-29T04:07:44.069Z,19.07
2022-07-29T04:10:11.289Z,16.20
2022-07-29T04:12:38.495Z,14.83
2022-07-29T04:15:06.261Z,10.77
2022-07-29T04:17:33.226Z,15.53
2022-07-29T04:20:00.365Z,14.50
2022-07-29T04:22:27.335Z,14.00
2022-07-29T04:24:54.478Z,20.23
2022-07-29T04:27:21.492Z,20.83
2022-07-29T04:29:56.554Z,16.43
2022-07-29T04:32:24.493Z,15.60
2022-07-29T04:34:51.478Z,11.87
2022-07-29T04:37:18.484Z,17.50
2022-07-29T04:39:45.433Z,11.80
2022-07-29T04:42:12.424Z,16.60
2022-07-29T04:44:43.194Z,16.50
2022-07-29T04:47:10.506Z,13.53
2022-07-29T04:49:40.608Z,13.27
2022-07-29T04:52:07.826Z,12.10
2022-07-29T04:54:34.806Z,14.00
2022-07-29T04:57:01.772Z,14.30
2022-07-29T04:59:28.754Z,17.90
2022-07-29T05:01:55.797Z,15.03
2022-07-29T05:04:22.815Z,12.30
2022-07-29T05:06:49.862Z,12.23
2022-07-29T05:09:16.807Z,14.40
2022-07-29T05:11:43.752Z,18.10
2022-07-29T05:14:10.719Z,28.47
2022-07-29T05:16:37.824Z,23.70
2022-07-29T05:19:04.821Z,28.97
2022-07-29T05:21:31.836Z,29.33
2022-07-29T05:23:58.838Z,29.40
2022-07-29T05:26:25.804Z,39.73
2022-07-29T05:28:52.958Z,34.90
2022-07-29T05:31:20.023Z,37.73
2022-07-29T05:33:47.045Z,45.70
2022-07-29T05:36:13.989Z,45.23
2022-07-29T05:38:40.975Z,51.33
2022-07-29T05:41:07.956Z,57.43
2022-07-29T05:43:34.927Z,56.60
2022-07-29T05:46:02.055Z,54.50
2022-07-29T05:48:29.217Z,80.63
2022-07-29T05:50:56.281Z,87.37
2022-07-29T05:53:23.431Z,91.80
2022-07-29T05:55:51.483Z,88.73
2022-07-29T05:58:18.449Z,82.83
2022-07-29T06:00:45.796Z,82.60
2022-07-29T06:03:12.843Z,86.73
2022-07-29T06:05:39.927Z,102.83
2022-07-29T06:08:08.361Z,120.73
2022-07-29T06:10:39.153Z,138.33
2022-07-29T06:13:06.343Z,129.97
2022-07-29T06:15:33.626Z,133.43
2022-07-29T06:18:01.705Z,126.13
2022-07-29T06:20:31.419Z,133.00
2022-07-29T06:22:58.846Z,127.53
2022-07-29T06:25:26.280Z,130.50
2022-07-29T06:27:53.748Z,129.93
2022-07-29T06:30:20.886Z,120.10
2022-07-29T06:32:48.254Z,106.03
2022-07-29T06:35:41.078Z,90.70
2022-07-29T06:38:25.133Z,96.80
2022-07-29T06:41:01.367Z,113.43
2022-07-29T06:43:32.495Z,89.90
2022-07-29T06:46:02.354Z,97.00
2022-07-29T06:48:30.083Z,88.73
2022-07-29T06:50:57.215Z,93.70
2022-07-29T06:53:24.510Z,82.33
2022-07-29T06:55:51.592Z,73.37
2022-07-29T06:58:21.304Z,71.73
2022-07-29T07:00:57.235Z,77.43
2022-07-29T07:03:24.495Z,71.57
2022-07-29T07:05:52.973Z,77.57
2022-07-29T07:08:20.486Z,73.97
2022-07-29T07:10:47.870Z,60.77
2022-07-29T07:13:18.113Z,63.37
2022-07-29T07:15:48.738Z,65.50
2022-07-29T07:18:16.618Z,65.43
2022-07-29T07:20:44.179Z,56.07
2022-07-29T07:23:11.393Z,60.80
2022-07-29T07:25:38.343Z,61.80
2022-07-29T07:28:06.060Z,69.50
2022-07-29T07:30:33.165Z,78.40
2022-07-29T07:33:01.206Z,80.97
2022-07-29T07:35:28.786Z,80.30
2022-07-29T07:37:57.470Z,73.20
2022-07-29T07:40:25.300Z,72.83
2022-07-29T07:42:52.323Z,73.20
2022-07-29T07:45:19.320Z,94.97
2022-07-29T07:47:46.254Z,79.20
2022-07-29T07:50:18.453Z,68.17
2022-07-29T07:52:50.800Z,72.40
2022-07-29T07:55:18.942Z,70.77
2022-07-29T07:57:46.740Z,61.20
2022-07-29T08:00:15.436Z,71.00
2022-07-29T08:02:44.016Z,62.30
2022-07-29T08:05:13.009Z,69.07
2022-07-29T08:07:40.342Z,57.40
2022-07-29T08:10:07.857Z,56.87
2022-07-29T08:12:34.791Z,55.70
2022-07-29T08:15:01.774Z,54.00
2022-07-29T08:17:29.339Z,51.30
2022-07-29T08:19:56.356Z,53.23
2022-07-29T08:22:23.335Z,55.17
2022-07-29T08:24:54.119Z,50.20
2022-07-29T08:27:42.327Z,58.07
2022-07-29T08:30:11.174Z,53.00
2022-07-29T08:32:55.138Z,51.10
2022-07-29T08:35:24.613Z,58.77
2022-07-29T08:37:52.469Z,52.90
2022-07-29T08:40:21.495Z,49.50
2022-07-29T08:43:00.754Z,50.73
2022-07-29T08:45:30.793Z,50.97
2022-07-29T08:47:58.106Z,45.70
2022-07-29T08:50:25.089Z,40.20
2022-07-29T08:52:56.570Z,41.93
2022-07-29T08:55:26.971Z,42.40
2022-07-29T08:57:57.286Z,38.90
2022-07-29T09:00:26.180Z,39.30
2022-07-29T09:02:59.668Z,35.50
2022-07-29T09:05:28.431Z,37.17
2022-07-29T09:07:55.951Z,29.30
2022-07-29T09:10:23.329Z,27.27
2022-07-29T09:12:50.412Z,35.33
2022-07-29T09:15:18.434Z,32.07
2022-07-29T09:17:47.833Z,25.43
2022-07-29T09:20:20.323Z,29.67
2022-07-29T09:22:50.616Z,28.10
2022-07-29T09:25:37.216Z,29.87
2022-07-29T09:28:12.154Z,16.90
2022-07-29T09:30:57.469Z,22.33
2022-07-29T09:33:31.777Z,20.77
2022-07-29T09:36:06.841Z,18.67
2022-07-29T09:38:34.726Z,19.07
2022-07-29T09:41:05.702Z,21.13
2022-07-29T09:43:33.379Z,29.20
2022-07-29T09:46:14.543Z,22.77
2022-07-29T09:48:41.774Z,25.87
2022-07-29T09:51:26.973Z,27.27
2022-07-29T09:54:28.663Z,28.67
2022-07-29T09:56:56.791Z,26.80
2022-07-29T09:59:27.408Z,22.10
2022-07-29T10:01:55.457Z,30.27
2022-07-29T10:04:23.040Z,23.33
2022-07-29T10:07:03.905Z,29.30
2022-07-29T10:09:31.918Z,31.00
2022-07-29T10:12:12.159Z,30.87
2022-07-29T10:14:39.860Z,27.20
2022-07-29T10:17:08.506Z,27.60
2022-07-29T10:19:36.577Z,25.43
2022-07-29T10:22:07.456Z,23.50
2022-07-29T10:24:34.857Z,21.30
2022-07-29T10:27:03.352Z,16.60
2022-07-29T10:29:32.429Z,24.10
2022-07-29T10:32:05.649Z,20.10
2022-07-29T10:35:05.514Z,25.97
2022-07-29T10:37:45.938Z,19.40
2022-07-29T10:41:11.149Z,16.23
2022-07-29T10:43:43.565Z,14.03
2022-07-29T10:46:12.963Z,14.27
2022-07-29T10:49:05.154Z,11.93
2022-07-29T10:52:00.857Z,11.73
2022-07-29T10:54:37.157Z,12.83
2022-07-29T10:57:14.580Z,12.37
2022-07-29T10:59:43.247Z,9.00
2022-07-29T11:02:41.908Z,17.40
2022-07-29T11:05:20.138Z,17.57
2022-07-29T11:08:12.487Z,7.70
2022-07-29T11:10:49.162Z,12.40
2022-07-29T11:13:47.252Z,5.87
2022-07-29T11:16:16.896Z,5.03
2022-07-29T11:19:15.777Z,4.17
2022-07-29T11:21:53.732Z,5.80
2022-07-29T11:24:33.384Z,10.07
2022-07-29T11:27:13.483Z,6.63
2022-07-29T11:29:50.034Z,4.43
2022-07-29T11:32:23.259Z,5.70
2022-07-29T11:35:17.747Z,5.63
2022-07-29T11:37:52.838Z,2.50
2022-07-29T11:40:25.013Z,2.60
2022-07-29T11:42:52.645Z,6.53
2022-07-29T11:45:42.916Z,7.00
2022-07-29T11:48:28.694Z,3.90
2022-07-29T11:50:58.616Z,5.07
2022-07-29T11:53:26.113Z,8.80
2022-07-29T11:55:58.269Z,3.97
2022-07-29T11:58:26.041Z,3.60
2022-07-29T12:00:55.335Z,4.17
2022-07-29T12:03:32.758Z,12.53
2022-07-29T12:06:00.216Z,4.93
2022-07-29T12:08:28.679Z,3.83
2022-07-29T12:10:55.780Z,4.63
2022-07-29T12:13:23.051Z,2.17
2022-07-29T12:16:05.435Z,6.03
2022-07-29T12:18:32.596Z,6.10
2022-07-29T12:21:04.840Z,1.80
2022-07-29T12:23:34.831Z,2.77
2022-07-29T12:26:07.664Z,2.20
2022-07-29T12:28:40.637Z,2.40
2022-07-29T12:31:15.117Z,2.93
2022-07-29T12:34:02.586Z,3.63
2022-07-29T12:36:29.703Z,4.20
2022-07-29T12:38:56.754Z,2.07
2022-07-29T12:41:23.844Z,2.03
2022-07-29T12:43:55.424Z,1.80
2022-07-29T12:46:22.795Z,4.90
2022-07-29T12:48:56.263Z,3.17
2022-07-29T12:51:33.907Z,7.10
2022-07-29T12:54:05.270Z,3.70
2022-07-29T12:56:42.803Z,16.03
2022-07-29T12:59:17.452Z,2.07
2022-07-29T13:01:45.323Z,5.20
2022-07-29T13:04:24.521Z,8.00
2022-07-29T13:07:00.787Z,3.53
2022-07-29T13:09:38.881Z,5.43
2022-07-29T13:12:12.165Z,5.60
2022-07-29T13:14:40.259Z,2.20
2022-07-29T13:17:14.593Z,9.70
2022-07-29T13:19:49.274Z,4.30
2022-07-29T13:22:22.324Z,3.17
2022-07-29T13:24:53.785Z,6.47
2022-07-29T13:27:26.522Z,9.73
2022-07-29T13:29:57.469Z,6.60
2022-07-29T13:32:27.820Z,14.03
2022-07-29T13:34:57.720Z,4.50
2022-07-29T13:37:25.193Z,2.00
2022-07-29T13:39:53.558Z,6.43
2022-07-29T13:42:20.783Z,2.60
2022-07-29T13:44:49.659Z,2.80
2022-07-29T13:47:17.206Z,4.60
2022-07-29T13:49:44.448Z,3.80
2022-07-29T13:52:11.761Z,2.57
2022-07-29T13:54:42.694Z,3.23
2022-07-29T13:57:11.948Z,1.97
2022-07-29T13:59:47.499Z,6.33
2022-07-29T14:02:17.659Z,5.23
2022-07-29T14:04:44.665Z,3.13
2022-07-29T14:07:11.649Z,1.83
2022-07-29T14:09:43.532Z,6.40
2022-07-29T14:12:10.836Z,1.20
2022-07-29T14:14:37.994Z,5.03
2022-07-29T14:17:07.730Z,2.60
2022-07-29T14:19:39.856Z,2.40
2022-07-29T14:22:09.453Z,1.80
2022-07-29T14:24:37.986Z,2.93
2022-07-29T14:27:06.846Z,2.13
2022-07-29T14:29:37.803Z,5.13
2022-07-29T14:32:11.183Z,2.00
2022-07-29T14:34:38.723Z,2.73
2022-07-29T14:37:06.994Z,3.57
2022-07-29T14:39:39.300Z,4.10
2022-07-29T14:42:10.043Z,4.40
2022-07-29T14:44:39.548Z,3.10
2022-07-29T14:47:07.571Z,4.70
2022-07-29T14:49:35.934Z,7.23
2022-07-29T14:52:03.389Z,3.43
2022-07-29T14:54:30.431Z,2.50
2022-07-29T14:56:58.425Z,2.27
2022-07-29T14:59:26.611Z,6.90
2022-07-29T15:01:53.830Z,3.87
2022-07-29T15:04:21.199Z,3.77
2022-07-29T15:06:48.823Z,2.30
2022-07-29T15:09:15.944Z,3.93
2022-07-29T15:11:43.032Z,4.40
2022-07-29T15:14:10.177Z,3.47
2022-07-29T15:16:38.475Z,1.87
2022-07-29T15:19:05.823Z,2.50
2022-07-29T15:21:33.128Z,3.00
2022-07-29T15:24:00.176Z,3.40
2022-07-29T15:26:27.153Z,3.77
2022-07-29T15:28:54.091Z,3.33
2022-07-29T15:31:21.086Z,5.53
2022-07-29T15:33:48.687Z,6.33
2022-07-29T15:36:42.119Z,1.73
2022-07-29T15:39:02.885Z,14.30
2022-07-29T15:41:29.907Z,10.03
2022-07-29T15:43:57.382Z,7.40
2022-07-29T15:46:42.841Z,5.47
2022-07-29T15:49:10.045Z,2.63
2022-07-29T15:51:37.114Z,5.67
2022-07-29T15:54:04.998Z,6.30
2022-07-29T15:56:32.430Z,3.50
2022-07-29T15:58:59.789Z,3.57
2022-07-29T16:01:28.389Z,3.43
2022-07-29T16:03:55.748Z,25.37
2022-07-29T16:06:24.122Z,13.67
2022-07-29T16:08:51.025Z,14.57
2022-07-29T16:11:17.954Z,13.63
2022-07-29T16:13:44.934Z,6.80
2022-07-29T16:16:13.240Z,7.13
2022-07-29T16:18:40.181Z,7.60
2022-07-29T16:21:07.176Z,12.00
2022-07-29T16:23:34.144Z,14.07
2022-07-29T16:26:01.592Z,12.57
2022-07-29T16:28:29.678Z,11.23
2022-07-29T16:30:57.300Z,12.40
2022-07-29T16:33:24.774Z,18.10
2022-07-29T16:35:52.591Z,18.53
2022-07-29T16:38:19.650Z,15.07
2022-07-29T16:40:47.059Z,12.33
2022-07-29T16:43:14.110Z,14.43
2022-07-29T16:45:45.056Z,19.87
2022-07-29T16:48:13.484Z,16.20
2022-07-29T16:50:43.305Z,14.60
2022-07-29T16:53:11.034Z,11.93
2022-07-29T16:55:38.335Z,13.87
2022-07-29T16:58:05.523Z,11.23
2022-07-29T17:00:32.938Z,11.73
2022-07-29T17:03:00.164Z,12.33
2022-07-29T17:05:28.202Z,12.30
2022-07-29T17:07:56.167Z,16.73
2022-07-29T17:10:23.250Z,12.30
2022-07-29T17:12:50.399Z,9.53
2022-07-29T17:15:20.829Z,19.97
2022-07-29T17:17:55.347Z,12.57
2022-07-29T17:20:24.000Z,9.93
2022-07-29T17:22:51.071Z,10.93
2022-07-29T17:25:20.590Z,6.67
2022-07-29T17:27:50.594Z,10.27
2022-07-29T17:30:18.564Z,9.83
2022-07-29T17:32:45.642Z,5.57
2022-07-29T17:35:31.053Z,8.40
2022-07-29T17:37:58.269Z,10.90
2022-07-29T17:40:25.348Z,11.97
2022-07-29T17:42:52.310Z,10.30
2022-07-29T17:45:19.361Z,5.53
2022-07-29T17:47:46.334Z,7.30
2022-07-29T17:50:13.397Z,5.00
2022-07-29T17:52:40.798Z,8.03
2022-07-29T17:55:12.569Z,6.37
2022-07-29T17:57:39.624Z,4.30
2022-07-29T18:00:08.220Z,7.00
2022-07-29T18:02:37.686Z,7.70
2022-07-29T18:05:05.401Z,14.47
2022-07-29T18:07:32.393Z,8.50
2022-07-29T18:10:00.716Z,6.90
2022-07-29T18:12:27.970Z,6.10
2022-07-29T18:14:55.020Z,13.13
2022-07-29T18:17:21.975Z,8.80
2022-07-29T18:20:09.656Z,9.97
2022-07-29T18:22:36.874Z,6.33
2022-07-29T18:25:04.164Z,4.43
2022-07-29T18:27:31.133Z,7.67
2022-07-29T18:29:58.231Z,7.83
2022-07-29T18:32:32.145Z,7.23
2022-07-29T18:35:02.575Z,5.90
2022-07-29T18:38:01.160Z,14.80
2022-07-29T18:40:16.812Z,10.57
2022-07-29T18:42:43.755Z,13.33
2022-07-29T18:45:14.758Z,12.33
2022-07-29T18:47:48.969Z,14.13
2022-07-29T18:50:16.953Z,8.13
2022-07-29T18:52:46.297Z,14.93
2022-07-29T18:55:13.919Z,9.00
2022-07-29T18:57:54.394Z,7.10
2022-07-29T19:00:24.741Z,13.80
2022-07-29T19:02:52.622Z,14.07
2022-07-29T19:05:20.231Z,10.40
2022-07-29T19:07:47.185Z,19.00
2022-07-29T19:10:14.268Z,12.07
2022-07-29T19:12:41.310Z,7.30
2022-07-29T19:15:10.348Z,5.67
2022-07-29T19:17:37.979Z,7.70
2022-07-29T19:20:07.302Z,8.70
2022-07-29T19:22:34.819Z,8.97
2022-07-29T19:25:02.136Z,8.13
2022-07-29T19:27:29.114Z,10.93
2022-07-29T19:29:59.169Z,23.90
2022-07-29T19:32:26.853Z,13.03
2022-07-29T19:35:12.711Z,22.53
2022-07-29T19:37:39.689Z,7.20
2022-07-29T19:40:07.360Z,10.37
2022-07-29T19:42:34.346Z,11.90
2022-07-29T19:45:01.330Z,11.40
2022-07-29T19:47:28.268Z,23.97
2022-07-29T19:49:55.304Z,8.83
2022-07-29T19:52:22.489Z,14.33
2022-07-29T19:54:49.426Z,9.50
2022-07-29T19:57:16.402Z,11.00
2022-07-29T19:59:44.255Z,8.43
2022-07-29T20:02:12.414Z,7.27
2022-07-29T20:04:40.281Z,8.63
2022-07-29T20:07:07.710Z,16.13
2022-07-29T20:09:34.842Z,11.43
2022-07-29T20:12:01.901Z,12.00
2022-07-29T20:14:28.932Z,7.93
2022-07-29T20:16:56.098Z,8.40
2022-07-29T20:19:23.127Z,8.60
2022-07-29T20:21:51.442Z,10.83
2022-07-29T20:24:22.030Z,9.40
2022-07-29T20:26:49.681Z,14.07
2022-07-29T20:29:16.866Z,14.33
2022-07-29T20:31:44.022Z,14.80
2022-07-29T20:34:11.252Z,25.17
2022-07-29T20:36:38.271Z,11.70
2022-07-29T20:39:05.370Z,9.17
2022-07-29T20:41:33.941Z,12.10
2022-07-29T20:44:02.036Z,8.17
2022-07-29T20:46:29.186Z,14.63
2022-07-29T20:48:56.596Z,6.90
2022-07-29T20:51:23.820Z,7.07
2022-07-29T20:53:50.878Z,4.17
2022-07-29T20:56:18.211Z,9.07
2022-07-29T20:58:45.249Z,10.03
2022-07-29T21:01:12.324Z,13.93
2022-07-29T21:03:39.952Z,11.00
2022-07-29T21:06:07.883Z,7.67
2022-07-29T21:08:35.358Z,12.13
2022-07-29T21:11:02.399Z,8.90
2022-07-29T21:13:29.544Z,6.20
2022-07-29T21:16:04.273Z,9.70
2022-07-29T21:18:37.299Z,5.10
2022-07-29T21:21:05.379Z,4.33
2022-07-29T21:23:32.391Z,7.53
2022-07-29T21:25:59.889Z,10.30
2022-07-29T21:28:27.056Z,7.70
2022-07-29T21:30:58.978Z,10.17
2022-07-29T21:33:27.599Z,8.63
2022-07-29T21:38:42.336Z,8.50
2022-07-29T21:41:11.374Z,10.20
2022-07-29T21:43:41.947Z,5.50
2022-07-29T21:46:09.842Z,7.27
2022-07-29T21:48:39.162Z,8.90
2022-07-29T21:51:09.421Z,9.30
2022-07-29T21:53:36.734Z,11.43
2022-07-29T21:56:04.377Z,9.93
2022-07-29T21:58:32.997Z,7.77
2022-07-29T22:01:00.345Z,6.23
2022-07-29T22:03:27.395Z,11.20
2022-07-29T22:05:54.308Z,10.63
2022-07-29T22:08:21.262Z,12.70
2022-07-29T22:10:48.363Z,9.10
2022-07-29T22:13:15.378Z,7.37
2022-07-29T22:15:46.905Z,9.90
2022-07-29T22:18:20.962Z,7.13
2022-07-29T22:20:51.797Z,14.30
2022-07-29T22:23:18.838Z,6.23
2022-07-29T22:25:45.845Z,8.70
2022-07-29T22:28:12.865Z,11.07
2022-07-29T22:30:39.947Z,7.53
2022-07-29T22:33:07.153Z,11.63
2022-07-29T22:35:34.200Z,4.97
2022-07-29T22:38:01.275Z,10.50
2022-07-29T22:40:30.644Z,5.40
2022-07-29T22:42:57.828Z,7.37
2022-07-29T22:45:24.819Z,9.17
2022-07-29T22:47:57.434Z,6.90
2022-07-29T22:50:26.441Z,9.50
2022-07-29T22:52:53.385Z,4.90
2022-07-29T22:55:20.712Z,12.70
2022-07-29T22:57:47.639Z,6.23
2022-07-29T23:00:15.190Z,14.90
2022-07-29T23:02:42.209Z,7.47
2022-07-29T23:05:10.266Z,10.43
2022-07-29T23:07:37.564Z,12.23
2022-07-29T23:10:04.954Z,6.00
2022-07-29T23:12:31.993Z,8.87
2022-07-29T23:14:59.057Z,27.63
2022-07-29T23:17:26.051Z,10.60
2022-07-29T23:19:53.386Z,10.73
2022-07-29T23:22:20.358Z,12.97
2022-07-29T23:24:47.486Z,7.60
2022-07-29T23:27:14.473Z,20.40
2022-07-29T23:29:41.414Z,11.47
2022-07-29T23:32:08.416Z,10.37
2022-07-29T23:34:35.449Z,12.17
2022-07-29T23:37:02.819Z,14.03
2022-07-29T23:39:29.941Z,12.23
2022-07-29T23:41:56.890Z,20.40
2022-07-29T23:44:23.897Z,16.13
2022-07-29T23:46:51.062Z,9.63
2022-07-29T23:49:18.218Z,10.70
2022-07-29T23:51:45.212Z,6.03
2022-07-29T23:54:12.234Z,10.40
2022-07-29T23:56:39.179Z,8.43
2022-07-29T23:59:06.211Z,9.00
